Bulktec — VRFJ3 — position and weather

sailwx.info

Track history (hours):
 
Tides and Currents Weather Stations Pressure Air Temp Water Temp Dewpoint Dewpoint Depression Visibility Wind Speed Wind Dir Waves Ship Positions

Bulktec

Last reported at 2016-Feb-07 10:33 UTC. Time now 2016-Feb-07 10:39 UTC.
Position S 32°36' E 152°42'.

Length 179 m; draft 6.6 m.

Type: Cargo ship. MMSI: 3699076.

Date/timePositionNaut miles runAvg speedWind from/ knotsBaromVisibWave heightAir tempDewpointWater temp
2016-Feb-07 10:33S 32°36' E 152°42'6 6.1
2016-Feb-07 09:33S 32°41' E 152°39'6 5.9
2016-Feb-07 08:33S 32°47' E 152°36'6 6.2
2016-Feb-07 07:33S 32°53' E 152°33'7 6.5
2016-Feb-07 06:26S 32°59' E 152°30'6 6.3
2016-Feb-07 05:25S 33°05' E 152°28'232 9.7
2016-Feb-06 05:31S 36°38' E 150°36'9 9.3
2016-Feb-06 04:33S 36°46' E 150°32'9 8.8
2016-Feb-06 03:33S 36°55' E 150°28'8 8.2
2016-Feb-06 02:33S 37°02' E 150°24'8 8.0
2016-Feb-06 01:33S 37°10' E 150°21'8 8.2
2016-Feb-06 00:33S 37°17' E 150°17'8 8.0
2016-Feb-05 23:33S 37°24' E 150°13'8 8.2
2016-Feb-05 22:33S 37°32' E 150°07'9 9.0
2016-Feb-05 21:33S 37°38' E 149°60'9 9.4
2016-Feb-05 20:33S 37°44' E 149°51'9 8.7
2016-Feb-05 19:33S 37°50' E 149°43'9 8.7
2016-Feb-05 18:33S 37°56' E 149°34'8 8.3
2016-Feb-05 17:33S 38°02' E 149°27'9 8.6
2016-Feb-05 16:33S 38°07' E 149°19'9 8.9
2016-Feb-05 15:33S 38°13' E 149°10'37 8.7
2016-Feb-05 11:18S 38°37' E 148°33'34 8.3
2016-Feb-05 07:10S 38°52' E 147°54'31 8.7
2016-Feb-05 03:33S 39°02' E 147°16'9 9.5
2016-Feb-05 02:33S 39°06' E 147°04'10 9.7
2016-Feb-05 01:29S 39°10' E 146°52'9 9.9
2016-Feb-05 00:33S 39°13' E 146°41'10 9.6
2016-Feb-04 23:33S 39°16' E 146°29'10 9.6
2016-Feb-04 22:33S 39°16' E 146°17'10 9.9
2016-Feb-04 21:33S 39°16' E 146°04'1110.0
2016-Feb-04 20:26S 39°14' E 145°50'162 9.4
2016-Feb-04 03:06S 38°42' E 142°25'5 9.1
2016-Feb-04 02:33S 38°40' E 142°20'9 9.1
2016-Feb-04 01:33S 38°35' E 142°10'9 9.1
2016-Feb-04 00:33S 38°30' E 142°00'9 9.0
2016-Feb-03 23:33S 38°25' E 141°50'  
2016-Feb-01 09:26S 38°21' E 141°37'0 0.0
2016-Feb-01 07:32S 38°21' E 141°37'0 0.0
2016-Feb-01 06:20S 38°21' E 141°37'0 0.0
2016-Feb-01 05:26S 38°21' E 141°37'0 0.0
2016-Feb-01 04:32S 38°21' E 141°37'0 0.0
2016-Feb-01 03:26S 38°21' E 141°37'  
2016-Jan-28 20:26S 38°19' E 141°42'0 0.0
2016-Jan-28 19:32S 38°19' E 141°42'0 0.0
2016-Jan-28 12:23S 38°19' E 141°42'  
Track history (hours):
 
Tides and Currents Weather Stations Pressure Air Temp Water Temp Dewpoint Dewpoint Depression Visibility Wind Speed Wind Dir Waves Ship Positions

Bulktec

Last reported at 2016-Feb-07 10:33 UTC. Time now 2016-Feb-07 10:39 UTC.
Position S 32°36' E 152°42'.

Length 179 m; draft 6.6 m.

Type: Cargo ship. MMSI: 3699076.

Date/timePositionNaut miles runAvg speedWind from/ knotsBaromVisibWave heightAir tempDewpointWater temp
2016-Feb-07 10:33S 32°36' E 152°42'6 6.1
2016-Feb-07 09:33S 32°41' E 152°39'6 5.9
2016-Feb-07 08:33S 32°47' E 152°36'6 6.2
2016-Feb-07 07:33S 32°53' E 152°33'7 6.5
2016-Feb-07 06:26S 32°59' E 152°30'6 6.3
2016-Feb-07 05:25S 33°05' E 152°28'232 9.7
2016-Feb-06 05:31S 36°38' E 150°36'9 9.3
2016-Feb-06 04:33S 36°46' E 150°32'9 8.8
2016-Feb-06 03:33S 36°55' E 150°28'8 8.2
2016-Feb-06 02:33S 37°02' E 150°24'8 8.0
2016-Feb-06 01:33S 37°10' E 150°21'8 8.2
2016-Feb-06 00:33S 37°17' E 150°17'8 8.0
2016-Feb-05 23:33S 37°24' E 150°13'8 8.2
2016-Feb-05 22:33S 37°32' E 150°07'9 9.0
2016-Feb-05 21:33S 37°38' E 149°60'9 9.4
2016-Feb-05 20:33S 37°44' E 149°51'9 8.7
2016-Feb-05 19:33S 37°50' E 149°43'9 8.7
2016-Feb-05 18:33S 37°56' E 149°34'8 8.3
2016-Feb-05 17:33S 38°02' E 149°27'9 8.6
2016-Feb-05 16:33S 38°07' E 149°19'9 8.9
2016-Feb-05 15:33S 38°13' E 149°10'37 8.7
2016-Feb-05 11:18S 38°37' E 148°33'34 8.3
2016-Feb-05 07:10S 38°52' E 147°54'31 8.7
2016-Feb-05 03:33S 39°02' E 147°16'9 9.5
2016-Feb-05 02:33S 39°06' E 147°04'10 9.7
2016-Feb-05 01:29S 39°10' E 146°52'9 9.9
2016-Feb-05 00:33S 39°13' E 146°41'10 9.6
2016-Feb-04 23:33S 39°16' E 146°29'10 9.6
2016-Feb-04 22:33S 39°16' E 146°17'10 9.9
2016-Feb-04 21:33S 39°16' E 146°04'1110.0
2016-Feb-04 20:26S 39°14' E 145°50'162 9.4
2016-Feb-04 03:06S 38°42' E 142°25'5 9.1
2016-Feb-04 02:33S 38°40' E 142°20'9 9.1
2016-Feb-04 01:33S 38°35' E 142°10'9 9.1
2016-Feb-04 00:33S 38°30' E 142°00'9 9.0
2016-Feb-03 23:33S 38°25' E 141°50'  
2016-Feb-01 09:26S 38°21' E 141°37'0 0.0
2016-Feb-01 07:32S 38°21' E 141°37'0 0.0
2016-Feb-01 06:20S 38°21' E 141°37'0 0.0
2016-Feb-01 05:26S 38°21' E 141°37'0 0.0
2016-Feb-01 04:32S 38°21' E 141°37'0 0.0
2016-Feb-01 03:26S 38°21' E 141°37'  
2016-Jan-28 20:26S 38°19' E 141°42'0 0.0
2016-Jan-28 19:32S 38°19' E 141°42'0 0.0
2016-Jan-28 12:23S 38°19' E 141°42'  

Dump ship's entire track history